Time;durP1;ratioP1;P1;durP2;ratioP2;P2;SDS_P1;SDS_P2;PMS_P1;PMS_P2;Temp;Humidity;BMP_temperature;BMP_pressure;BME280_temperature;BME280_humidity;BME280_pressure;Samples;Min_cycle;Max_cycle;Signal;HPM_P1;HPM_P2
2021/08/20 00:01:22;;;;;;;6.00;3.15;;;20.40;71.30;;;;;;5044922;28;20028;-50
2021/08/20 00:04:07;;;;;;;5.15;3.10;;;20.40;71.50;;;;;;5044874;28;20035;-50
2021/08/20 00:06:51;;;;;;;4.10;2.80;;;20.40;71.40;;;;;;5044814;28;20044;-53
2021/08/20 00:09:35;;;;;;;5.53;2.97;;;20.40;71.40;;;;;;5045570;28;20255;-49
2021/08/20 00:12:19;;;;;;;6.38;2.95;;;20.40;71.60;;;;;;5045425;28;20071;-53
2021/08/20 00:15:04;;;;;;;5.85;3.10;;;20.40;71.50;;;;;;5045273;28;20082;-52
2021/08/20 00:17:48;;;;;;;3.88;2.55;;;20.30;71.60;;;;;;5045045;28;20093;-52
2021/08/20 00:20:33;;;;;;;4.40;2.80;;;20.30;71.90;;;;;;5045181;28;20067;-52
2021/08/20 00:23:17;;;;;;;4.72;2.80;;;20.30;72.10;;;;;;5044924;28;20292;-50
2021/08/20 00:26:01;;;;;;;5.97;2.70;;;20.30;71.70;;;;;;5044862;28;20400;-53
2021/08/20 00:28:46;;;;;;;5.22;3.00;;;20.30;72.00;;;;;;5045314;28;20067;-52
2021/08/20 00:31:31;;;;;;;6.10;3.13;;;20.30;71.80;;;;;;5044023;28;20262;-49
2021/08/20 00:34:15;;;;;;;4.90;3.05;;;20.30;71.60;;;;;;5045203;28;20063;-50
2021/08/20 00:36:59;;;;;;;10.65;2.90;;;20.30;71.60;;;;;;5045141;28;20406;-50
2021/08/20 00:39:43;;;;;;;5.80;2.80;;;20.30;71.70;;;;;;5044699;28;20216;-49
2021/08/20 00:42:28;;;;;;;4.80;2.85;;;20.20;71.90;;;;;;5044713;28;20040;-53
2021/08/20 00:45:12;;;;;;;4.93;3.00;;;20.10;72.10;;;;;;5044613;28;20051;-53
2021/08/20 00:47:56;;;;;;;4.30;2.58;;;20.10;72.10;;;;;;5044493;28;20216;-53
2021/08/20 00:50:41;;;;;;;7.63;3.10;;;20.20;72.10;;;;;;5044240;28;20048;-51
2021/08/20 00:53:25;;;;;;;4.20;3.10;;;20.10;72.00;;;;;;5043460;28;20076;-51
2021/08/20 00:56:09;;;;;;;4.75;2.92;;;20.10;72.10;;;;;;5044282;28;20229;-50
2021/08/20 00:58:53;;;;;;;6.07;2.83;;;20.10;72.20;;;;;;5043812;28;20105;-50
2021/08/20 01:01:37;;;;;;;7.57;2.95;;;20.00;72.20;;;;;;5043545;28;20048;-50
2021/08/20 01:04:21;;;;;;;4.95;3.20;;;20.00;72.10;;;;;;5044260;28;20036;-53
2021/08/20 01:07:06;;;;;;;3.58;2.70;;;20.00;72.20;;;;;;5044181;28;20029;-50
2021/08/20 01:09:50;;;;;;;4.40;2.72;;;19.90;72.00;;;;;;5044267;28;20256;-49
2021/08/20 01:12:36;;;;;;;5.07;3.08;;;19.90;71.90;;;;;;5043713;28;20044;-49
2021/08/20 01:15:19;;;;;;;5.20;3.10;;;20.00;71.80;;;;;;5043716;28;20272;-49
2021/08/20 01:18:04;;;;;;;5.38;3.50;;;19.90;71.90;;;;;;5044035;28;20084;-49
2021/08/20 01:20:49;;;;;;;6.85;3.40;;;19.80;72.00;;;;;;5043156;28;20243;-51
2021/08/20 01:23:33;;;;;;;4.72;3.03;;;19.80;72.20;;;;;;5043984;28;20347;-51
2021/08/20 01:26:17;;;;;;;4.45;2.95;;;19.80;72.20;;;;;;5043938;28;20221;-52
2021/08/20 01:29:01;;;;;;;5.15;2.90;;;19.80;72.20;;;;;;5043987;28;20075;-49
2021/08/20 01:31:46;;;;;;;4.75;3.00;;;19.70;72.50;;;;;;5044333;28;20097;-51
2021/08/20 01:34:30;;;;;;;6.72;3.22;;;19.60;72.60;;;;;;5043963;28;20347;-50
2021/08/20 01:37:14;;;;;;;7.70;2.92;;;19.60;72.70;;;;;;5044301;28;20375;-50
2021/08/20 01:39:59;;;;;;;4.00;2.90;;;19.60;72.70;;;;;;5044365;28;20205;-51
2021/08/20 01:42:43;;;;;;;6.72;2.80;;;19.60;72.80;;;;;;5043813;28;20257;-50
2021/08/20 01:45:27;;;;;;;4.60;2.90;;;19.70;72.70;;;;;;5043766;28;20101;-49
2021/08/20 01:48:12;;;;;;;5.82;3.03;;;19.60;72.60;;;;;;5043697;28;20040;-52
2021/08/20 01:50:56;;;;;;;5.18;3.10;;;19.70;72.60;;;;;;5043817;28;20136;-53
2021/08/20 01:53:44;;;;;;;4.15;3.03;;;19.60;72.60;;;;;;5043638;28;20086;-50
2021/08/20 01:56:29;;;;;;;5.75;3.10;;;19.50;72.90;;;;;;5043865;28;20040;-49
2021/08/20 01:59:14;;;;;;;4.70;3.20;;;19.50;72.90;;;;;;5043577;28;20217;-50
2021/08/20 02:01:58;;;;;;;6.40;2.88;;;19.40;73.10;;;;;;5044029;28;20024;-52
2021/08/20 02:04:42;;;;;;;5.07;2.92;;;19.40;73.20;;;;;;5043635;28;20039;-50
2021/08/20 02:07:26;;;;;;;5.07;3.08;;;19.40;73.30;;;;;;5043676;28;20067;-50
2021/08/20 02:10:11;;;;;;;5.63;3.13;;;19.50;73.40;;;;;;5044014;28;20029;-50
2021/08/20 02:12:55;;;;;;;4.38;2.83;;;19.40;73.70;;;;;;5043895;28;20075;-50
2021/08/20 02:15:40;;;;;;;4.18;2.92;;;19.30;73.70;;;;;;5043835;28;20053;-51
2021/08/20 02:18:24;;;;;;;5.25;3.10;;;19.40;73.60;;;;;;5043654;28;20048;-52
2021/08/20 02:21:08;;;;;;;4.57;2.83;;;19.30;73.70;;;;;;5043596;28;20244;-52
2021/08/20 02:23:52;;;;;;;5.30;3.13;;;19.30;73.70;;;;;;5043443;28;20208;-49
2021/08/20 02:26:36;;;;;;;4.18;2.90;;;19.30;73.70;;;;;;5047293;28;20092;-50
2021/08/20 02:29:21;;;;;;;5.93;2.97;;;19.20;73.70;;;;;;5047384;28;20093;-53
2021/08/20 02:32:05;;;;;;;4.35;2.90;;;19.20;73.60;;;;;;5047071;28;20398;-52
2021/08/20 02:34:50;;;;;;;6.25;3.00;;;19.20;73.40;;;;;;5047497;28;20024;-49
2021/08/20 02:37:34;;;;;;;6.85;3.28;;;19.20;73.00;;;;;;5047157;28;20032;-50
2021/08/20 02:40:18;;;;;;;8.00;3.30;;;19.20;73.10;;;;;;5047456;28;20052;-49
2021/08/20 02:43:02;;;;;;;6.22;3.08;;;19.10;73.20;;;;;;5046899;28;20028;-52
2021/08/20 02:45:47;;;;;;;5.32;3.30;;;19.10;73.30;;;;;;5047376;28;20080;-50
2021/08/20 02:48:32;;;;;;;4.78;2.97;;;19.10;73.30;;;;;;5047086;28;20351;-50
2021/08/20 02:51:16;;;;;;;4.55;3.05;;;19.10;73.20;;;;;;5046748;28;20072;-50
2021/08/20 02:54:00;;;;;;;7.22;3.00;;;19.10;73.20;;;;;;5046881;28;20032;-53
2021/08/20 02:56:45;;;;;;;8.68;3.13;;;19.00;73.30;;;;;;5046637;28;20083;-50
2021/08/20 02:59:29;;;;;;;6.40;2.88;;;18.90;73.40;;;;;;5046571;28;20041;-53
2021/08/20 03:02:13;;;;;;;5.22;3.00;;;18.90;73.20;;;;;;5046498;28;20375;-50
2021/08/20 03:04:58;;;;;;;5.47;2.90;;;18.90;73.30;;;;;;5047676;28;20017;-50
2021/08/20 03:07:42;;;;;;;5.00;3.22;;;18.90;73.40;;;;;;5046440;28;20068;-52
2021/08/20 03:10:26;;;;;;;4.55;3.08;;;18.80;73.60;;;;;;5046553;28;20375;-49
2021/08/20 03:13:10;;;;;;;4.72;2.88;;;18.80;73.80;;;;;;5046610;28;20285;-50
2021/08/20 03:15:55;;;;;;;4.75;2.90;;;18.80;73.80;;;;;;5046155;28;20395;-53
2021/08/20 03:18:39;;;;;;;6.50;2.80;;;18.80;73.90;;;;;;5046197;28;20048;-53
2021/08/20 03:21:23;;;;;;;4.55;3.20;;;18.80;73.90;;;;;;5046148;28;20251;-51
2021/08/20 03:24:08;;;;;;;5.85;3.17;;;18.80;74.10;;;;;;5045947;28;20071;-50
2021/08/20 03:26:52;;;;;;;3.65;2.70;;;18.80;74.20;;;;;;5046020;28;20036;-51
2021/08/20 03:29:36;;;;;;;4.80;2.90;;;18.80;74.20;;;;;;5046489;28;20104;-49
2021/08/20 03:32:20;;;;;;;5.35;3.17;;;18.80;74.20;;;;;;5046025;28;20343;-51
2021/08/20 03:35:06;;;;;;;4.75;2.80;;;18.80;74.30;;;;;;5045992;28;20286;-50
2021/08/20 03:37:50;;;;;;;4.85;2.97;;;18.80;74.50;;;;;;5045480;28;20029;-51
2021/08/20 03:40:34;;;;;;;6.97;3.28;;;18.80;74.60;;;;;;5045986;28;20070;-50
2021/08/20 03:43:19;;;;;;;6.65;3.15;;;18.70;74.70;;;;;;5046690;28;20281;-49
2021/08/20 03:46:06;;;;;;;4.90;2.75;;;18.80;74.70;;;;;;5046234;28;20032;-53
2021/08/20 03:48:50;;;;;;;9.57;3.38;;;18.80;74.80;;;;;;5045799;28;20036;-51
2021/08/20 03:51:35;;;;;;;5.38;3.20;;;18.70;74.80;;;;;;5045886;28;20048;-49
2021/08/20 03:54:19;;;;;;;5.47;3.10;;;18.70;75.00;;;;;;5045800;28;20062;-50
2021/08/20 03:57:04;;;;;;;4.53;2.95;;;18.80;74.90;;;;;;5045714;28;20056;-51
2021/08/20 03:59:48;;;;;;;5.80;2.70;;;18.70;74.90;;;;;;5045382;28;20084;-50
2021/08/20 04:02:32;;;;;;;4.55;3.00;;;18.70;74.90;;;;;;5045465;28;20024;-52
2021/08/20 04:05:17;;;;;;;4.57;2.75;;;18.70;74.90;;;;;;5045240;28;20343;-51
2021/08/20 04:08:01;;;;;;;5.00;2.97;;;18.80;74.80;;;;;;5045235;28;20033;-49
2021/08/20 04:10:45;;;;;;;7.60;2.80;;;18.70;74.90;;;;;;5045669;28;20071;-52
2021/08/20 04:13:29;;;;;;;8.30;3.08;;;18.70;74.80;;;;;;5045138;28;20230;-50
2021/08/20 04:16:14;;;;;;;6.40;3.10;;;18.80;74.80;;;;;;5045039;28;20360;-52
2021/08/20 04:18:58;;;;;;;4.60;2.95;;;18.70;74.80;;;;;;5045480;28;20045;-53
2021/08/20 04:21:43;;;;;;;5.32;3.22;;;18.80;74.70;;;;;;5045339;28;20097;-49
2021/08/20 04:24:28;;;;;;;4.95;2.83;;;18.80;74.80;;;;;;5044851;28;20056;-53
2021/08/20 04:27:12;;;;;;;5.22;3.25;;;18.80;75.00;;;;;;5045322;28;20093;-49
2021/08/20 04:29:56;;;;;;;5.45;3.28;;;18.80;75.00;;;;;;5045264;28;20339;-49
2021/08/20 04:32:40;;;;;;;4.75;3.03;;;18.80;75.00;;;;;;5045053;28;20028;-50
2021/08/20 04:35:25;;;;;;;5.05;2.80;;;18.80;75.10;;;;;;5044712;28;20317;-52
2021/08/20 04:38:09;;;;;;;10.25;3.28;;;18.80;75.10;;;;;;5044679;28;20029;-50
2021/08/20 04:40:54;;;;;;;6.82;3.45;;;18.80;75.10;;;;;;5045128;28;20426;-53
2021/08/20 04:43:38;;;;;;;8.50;2.75;;;18.80;75.10;;;;;;5044723;28;20068;-52
2021/08/20 04:46:25;;;;;;;8.82;2.92;;;18.80;75.20;;;;;;5044657;28;20079;-49
2021/08/20 04:49:10;;;;;;;4.55;3.00;;;18.80;75.30;;;;;;5044438;28;20049;-49
2021/08/20 04:51:54;;;;;;;4.75;2.85;;;18.80;75.40;;;;;;5044776;28;20387;-49
2021/08/20 04:54:38;;;;;;;6.00;3.58;;;18.80;75.50;;;;;;5044177;28;20025;-50
2021/08/20 04:57:22;;;;;;;7.05;3.47;;;18.80;75.40;;;;;;5044733;28;20032;-50
2021/08/20 05:00:07;;;;;;;6.38;3.28;;;18.90;75.30;;;;;;5043452;28;20095;-53
2021/08/20 05:02:51;;;;;;;6.35;3.72;;;18.90;75.30;;;;;;5044496;28;20031;-50
2021/08/20 05:05:36;;;;;;;6.70;3.50;;;18.90;75.30;;;;;;5044201;28;20035;-50
2021/08/20 05:08:20;;;;;;;5.60;3.20;;;18.80;75.50;;;;;;5043305;28;20068;-50
2021/08/20 05:11:05;;;;;;;5.57;3.42;;;18.80;75.30;;;;;;5044012;28;20024;-51
2021/08/20 05:13:49;;;;;;;7.40;3.70;;;18.90;75.30;;;;;;5044359;28;20248;-50
2021/08/20 05:16:33;;;;;;;5.25;3.40;;;18.90;75.00;;;;;;5043697;28;20213;-51
2021/08/20 05:19:38;;;;;;;5.80;3.30;;;18.90;74.80;;;;;;5043922;28;20073;-51
2021/08/20 05:22:22;;;;;;;6.20;3.50;;;18.90;75.00;;;;;;5044019;28;20036;-50
2021/08/20 05:25:07;;;;;;;5.35;3.42;;;18.90;74.90;;;;;;5043439;28;20209;-51
2021/08/20 05:27:51;;;;;;;9.98;3.60;;;19.00;75.10;;;;;;5043909;28;20059;-49
2021/08/20 05:30:35;;;;;;;6.35;3.40;;;19.00;74.80;;;;;;5043772;28;20277;-49
2021/08/20 05:33:19;;;;;;;5.25;3.20;;;19.00;74.90;;;;;;5043806;28;20071;-53
2021/08/20 05:36:04;;;;;;;9.00;3.13;;;19.10;75.00;;;;;;5043853;28;20208;-49
2021/08/20 05:38:48;;;;;;;6.22;3.25;;;19.10;75.20;;;;;;5043899;28;20071;-51
2021/08/20 05:41:32;;;;;;;7.38;3.30;;;19.10;75.00;;;;;;5043609;28;20044;-51
2021/08/20 05:44:17;;;;;;;6.07;3.22;;;19.10;75.20;;;;;;5043824;28;20278;-50
2021/08/20 05:47:01;;;;;;;6.43;3.20;;;19.20;75.10;;;;;;5043636;28;20061;-52
2021/08/20 05:49:45;;;;;;;12.80;3.95;;;19.20;75.10;;;;;;5044150;28;20031;-50
2021/08/20 05:52:31;;;;;;;6.82;3.42;;;19.20;75.00;;;;;;5043864;28;20091;-50
2021/08/20 05:55:15;;;;;;;8.60;3.63;;;19.20;75.20;;;;;;5043123;28;20075;-49
2021/08/20 05:57:59;;;;;;;6.07;3.58;;;19.30;75.00;;;;;;5043579;28;20093;-49
2021/08/20 06:00:44;;;;;;;5.68;3.70;;;19.30;75.00;;;;;;5046503;28;20052;-51
2021/08/20 06:03:28;;;;;;;5.78;3.85;;;19.40;74.80;;;;;;5047918;28;20033;-50
2021/08/20 06:06:15;;;;;;;8.20;6.22;;;19.40;74.20;;;;;;5047571;28;20036;-50
2021/08/20 06:08:59;;;;;;;7.38;4.00;;;19.50;74.50;;;;;;5047592;28;20047;-53
2021/08/20 06:11:44;;;;;;;9.02;3.80;;;19.50;74.50;;;;;;5047633;28;20033;-51
2021/08/20 06:14:28;;;;;;;6.45;4.13;;;19.60;74.00;;;;;;5047304;28;20144;-52
2021/08/20 06:17:12;;;;;;;5.50;3.53;;;19.60;73.40;;;;;;5047125;28;20036;-53
2021/08/20 06:19:56;;;;;;;7.18;3.63;;;19.70;73.00;;;;;;5047850;28;20124;-53
2021/08/20 06:22:41;;;;;;;6.07;3.80;;;19.70;73.30;;;;;;5047305;28;20037;-50
2021/08/20 06:25:25;;;;;;;8.27;3.70;;;19.70;73.20;;;;;;5047372;28;20036;-53
2021/08/20 06:28:09;;;;;;;5.18;3.55;;;19.80;73.10;;;;;;5047425;28;20059;-50
2021/08/20 06:30:54;;;;;;;6.65;3.97;;;19.80;72.50;;;;;;5047083;28;20044;-52
2021/08/20 06:33:38;;;;;;;10.10;3.97;;;19.80;72.10;;;;;;5047011;28;20076;-50
2021/08/20 06:36:22;;;;;;;6.00;3.85;;;19.80;71.90;;;;;;5047015;28;20075;-51
2021/08/20 06:39:06;;;;;;;6.45;4.18;;;19.90;71.60;;;;;;5047038;28;20255;-53
2021/08/20 06:41:51;;;;;;;5.70;3.70;;;20.00;71.30;;;;;;5046912;28;20032;-52
2021/08/20 06:44:35;;;;;;;9.15;4.32;;;20.00;71.10;;;;;;5046866;28;20037;-52
2021/08/20 06:47:19;;;;;;;8.43;3.78;;;20.00;71.10;;;;;;5046729;28;20052;-52
2021/08/20 06:50:04;;;;;;;6.70;3.90;;;20.10;71.00;;;;;;5045759;28;20059;-52
2021/08/20 06:52:48;;;;;;;5.35;3.42;;;20.20;71.30;;;;;;5046991;28;20351;-51
2021/08/20 06:55:33;;;;;;;7.93;3.78;;;20.20;71.10;;;;;;5046786;28;20101;-52
2021/08/20 06:58:17;;;;;;;4.97;3.60;;;20.30;70.90;;;;;;5047135;28;20087;-50
2021/08/20 07:01:01;;;;;;;6.90;3.90;;;20.30;71.00;;;;;;5046864;28;20340;-53
2021/08/20 07:03:45;;;;;;;6.93;3.53;;;20.30;70.90;;;;;;5045681;28;20068;-53
2021/08/20 07:06:29;;;;;;;9.05;3.63;;;20.30;71.10;;;;;;5045852;28;20071;-52
2021/08/20 07:09:13;;;;;;;6.63;4.07;;;20.30;70.90;;;;;;5046577;28;20033;-51
2021/08/20 07:11:58;;;;;;;6.93;3.80;;;20.30;70.80;;;;;;5044957;28;20093;-52
2021/08/20 07:14:42;;;;;;;6.65;3.95;;;20.40;70.80;;;;;;5046255;28;20060;-50
2021/08/20 07:17:26;;;;;;;7.50;4.00;;;20.30;70.40;;;;;;5045914;28;20041;-49
2021/08/20 07:20:11;;;;;;;6.15;3.90;;;20.40;70.50;;;;;;5046086;28;20023;-49
2021/08/20 07:22:55;;;;;;;6.30;3.67;;;20.40;70.90;;;;;;5046516;28;20088;-50
2021/08/20 07:25:39;;;;;;;6.35;4.60;;;20.50;70.70;;;;;;5046306;28;20095;-51
2021/08/20 07:28:23;;;;;;;5.10;3.40;;;20.60;70.90;;;;;;5046130;28;20100;-53
2021/08/20 07:31:08;;;;;;;5.68;3.45;;;20.60;71.10;;;;;;5045943;28;20051;-52
2021/08/20 07:33:52;;;;;;;8.80;3.65;;;20.50;71.10;;;;;;5045875;28;20032;-52
2021/08/20 07:36:37;;;;;;;5.68;3.33;;;20.60;70.60;;;;;;5045619;28;20049;-50
2021/08/20 07:39:21;;;;;;;7.22;3.60;;;20.60;70.90;;;;;;5045660;28;20040;-52
2021/08/20 07:42:06;;;;;;;5.60;3.65;;;20.60;71.00;;;;;;5045954;28;20060;-53
2021/08/20 07:44:50;;;;;;;6.40;3.72;;;20.60;71.60;;;;;;5044757;28;20076;-51
2021/08/20 07:47:44;;;;;;;8.73;4.20;;;20.60;71.30;;;;;;5045756;28;20048;-53
2021/08/20 07:50:29;;;;;;;6.90;4.10;;;20.70;71.50;;;;;;5045554;28;20033;-50
2021/08/20 07:53:15;;;;;;;6.68;3.92;;;20.70;71.20;;;;;;5045431;28;20020;-54
2021/08/20 07:56:00;;;;;;;6.32;3.75;;;20.80;70.80;;;;;;5045424;28;20080;-53
2021/08/20 07:58:44;;;;;;;7.88;4.40;;;20.80;70.90;;;;;;5045899;28;20027;-51
2021/08/20 08:01:28;;;;;;;8.82;4.30;;;20.70;70.50;;;;;;5045529;28;20037;-50
2021/08/20 08:04:12;;;;;;;5.57;3.80;;;20.80;70.30;;;;;;5045854;28;20028;-51
2021/08/20 08:06:56;;;;;;;8.95;4.47;;;20.80;70.20;;;;;;5045661;28;20032;-51
2021/08/20 08:09:41;;;;;;;8.25;4.30;;;20.80;70.40;;;;;;5045378;28;20101;-51
2021/08/20 08:12:25;;;;;;;6.03;3.72;;;20.80;70.50;;;;;;5045102;28;20035;-53
2021/08/20 08:15:10;;;;;;;7.63;4.32;;;20.90;70.50;;;;;;5044788;28;20320;-53
2021/08/20 08:17:57;;;;;;;7.88;4.38;;;20.90;70.80;;;;;;5045132;28;20072;-53
2021/08/20 08:20:42;;;;;;;10.27;4.40;;;21.00;70.60;;;;;;5044758;28;20032;-51
2021/08/20 08:23:26;;;;;;;8.88;4.50;;;21.00;70.40;;;;;;5044506;28;20029;-53
2021/08/20 08:26:10;;;;;;;6.60;4.18;;;21.00;70.30;;;;;;5043975;28;20067;-50
2021/08/20 08:28:54;;;;;;;8.35;4.55;;;21.10;69.80;;;;;;5045323;28;20029;-53
2021/08/20 08:31:38;;;;;;;6.30;4.13;;;21.10;69.80;;;;;;5044052;28;20080;-52
2021/08/20 08:34:22;;;;;;;11.35;4.32;;;21.20;69.90;;;;;;5043933;28;20053;-53
2021/08/20 08:37:07;;;;;;;6.35;4.20;;;21.30;69.70;;;;;;5045170;28;20064;-53
2021/08/20 08:39:51;;;;;;;7.57;4.40;;;21.30;69.50;;;;;;5044952;28;20094;-53
2021/08/20 08:42:35;;;;;;;7.32;4.40;;;21.40;70.10;;;;;;5043683;28;20052;-54
2021/08/20 08:45:20;;;;;;;8.95;4.35;;;21.50;69.80;;;;;;5044780;28;20028;-54
2021/08/20 08:48:06;;;;;;;9.13;4.10;;;21.60;69.00;;;;;;5044430;28;20059;-52
2021/08/20 08:50:50;;;;;;;6.85;4.25;;;21.60;68.50;;;;;;5044421;28;20028;-54
2021/08/20 08:53:34;;;;;;;7.35;4.28;;;21.70;68.40;;;;;;5044460;28;20040;-54
2021/08/20 08:56:19;;;;;;;7.38;4.30;;;21.80;68.70;;;;;;5043235;28;20188;-52
2021/08/20 08:59:03;;;;;;;7.95;4.53;;;21.80;67.60;;;;;;5043240;28;20032;-52
2021/08/20 09:01:49;;;;;;;11.90;4.50;;;21.80;66.80;;;;;;5044703;28;20060;-53
2021/08/20 09:04:33;;;;;;;7.25;4.10;;;21.90;67.30;;;;;;5044602;28;20260;-54
2021/08/20 09:07:17;;;;;;;6.50;4.20;;;21.90;67.40;;;;;;5044736;28;20049;-53
2021/08/20 09:10:15;;;;;;;5.65;3.58;;;22.10;67.00;;;;;;5044228;28;20102;-51
2021/08/20 09:13:00;;;;;;;6.60;4.00;;;22.20;66.30;;;;;;5044044;28;20083;-53
2021/08/20 09:15:45;;;;;;;8.30;4.13;;;22.30;66.50;;;;;;5044050;28;20071;-53
2021/08/20 09:18:29;;;;;;;7.10;3.90;;;22.30;67.10;;;;;;5044029;28;20062;-54
2021/08/20 09:21:15;;;;;;;7.63;4.47;;;22.40;67.00;;;;;;5042805;28;20368;-54
2021/08/20 09:23:59;;;;;;;7.00;3.47;;;22.40;65.50;;;;;;5043764;28;20028;-53
2021/08/20 09:26:44;;;;;;;7.10;3.80;;;22.50;65.70;;;;;;5043765;28;20225;-54
2021/08/20 09:29:28;;;;;;;7.68;4.47;;;22.50;66.30;;;;;;5043879;28;20056;-53
2021/08/20 09:32:13;;;;;;;6.05;4.00;;;22.60;66.40;;;;;;5042882;28;20036;-53
2021/08/20 09:34:58;;;;;;;9.60;4.22;;;22.60;66.20;;;;;;5043366;28;20292;-54
2021/08/20 09:37:42;;;;;;;8.43;4.63;;;22.70;66.90;;;;;;5043770;28;20036;-54
2021/08/20 09:40:27;;;;;;;7.93;4.13;;;22.70;66.40;;;;;;5043916;28;20072;-54
2021/08/20 09:43:23;;;;;;;7.88;4.60;;;22.70;66.20;;;;;;5044209;28;20344;-53
2021/08/20 09:46:18;;;;;;;8.18;4.28;;;22.80;66.60;;;;;;5043613;28;20059;-54
2021/08/20 09:49:02;;;;;;;8.85;4.47;;;22.90;66.10;;;;;;5044017;28;20044;-52
2021/08/20 09:51:47;;;;;;;12.88;4.60;;;22.90;66.20;;;;;;5044183;28;20196;-54
2021/08/20 09:54:31;;;;;;;7.45;3.88;;;23.10;65.60;;;;;;5043478;28;20093;-54
2021/08/20 09:57:16;;;;;;;10.02;4.88;;;23.20;65.80;;;;;;5028945;28;20028;-54
2021/08/20 10:00:00;;;;;;;8.00;4.47;;;23.40;66.00;;;;;;5043559;28;20085;-53
2021/08/20 10:02:44;;;;;;;9.75;4.07;;;23.40;63.80;;;;;;5028529;28;20052;-51
2021/08/20 10:05:28;;;;;;;7.20;3.80;;;23.50;63.70;;;;;;5043477;28;20032;-54
2021/08/20 10:08:13;;;;;;;6.95;3.80;;;23.50;62.20;;;;;;5042432;28;20139;-54
2021/08/20 10:10:57;;;;;;;6.40;3.58;;;23.60;60.80;;;;;;5044234;28;20105;-53
2021/08/20 10:13:43;;;;;;;8.18;3.60;;;23.50;59.80;;;;;;5042478;28;20360;-54
2021/08/20 10:16:29;;;;;;;6.88;3.20;;;23.60;60.10;;;;;;5042717;28;20036;-54
2021/08/20 10:19:14;;;;;;;5.85;3.05;;;23.70;60.60;;;;;;5044213;28;20037;-54
2021/08/20 10:21:59;;;;;;;6.22;2.90;;;23.80;59.90;;;;;;5043729;28;20358;-55
2021/08/20 10:24:44;;;;;;;6.38;2.58;;;23.80;59.70;;;;;;5043900;28;20037;-53
2021/08/20 10:27:31;;;;;;;5.18;2.30;;;24.00;58.40;;;;;;5042640;28;20071;-55
2021/08/20 10:30:15;;;;;;;5.07;2.22;;;24.10;58.00;;;;;;5043586;28;20033;-54
2021/08/20 10:33:03;;;;;;;3.95;2.50;;;24.20;55.50;;;;;;5043676;28;20052;-55
2021/08/20 10:35:54;;;;;;;5.10;2.28;;;24.20;55.10;;;;;;5043375;28;20072;-54
2021/08/20 10:38:39;;;;;;;;;;;24.30;57.70;;;;;;5044300;28;20032;-54
2021/08/20 10:41:23;;;;;;;7.28;2.72;;;24.40;56.60;;;;;;5048675;28;20231;-54
2021/08/20 10:44:09;;;;;;;6.10;2.67;;;24.50;57.80;;;;;;5043399;28;20067;-55
2021/08/20 10:46:56;;;;;;;3.80;2.33;;;24.50;55.60;;;;;;5046933;28;20347;-55
2021/08/20 10:49:41;;;;;;;4.47;2.60;;;24.70;56.50;;;;;;5047006;28;20047;-54
2021/08/20 10:52:29;;;;;;;3.95;2.40;;;24.80;56.40;;;;;;5047061;28;20089;-54
2021/08/20 10:55:15;;;;;;;5.15;2.33;;;25.00;55.80;;;;;;5047217;28;20035;-54
2021/08/20 10:58:01;;;;;;;6.18;2.45;;;25.00;55.00;;;;;;5047103;28;20031;-54
2021/08/20 11:00:52;;;;;;;3.38;2.10;;;24.90;50.70;;;;;;5046867;28;20040;-54
2021/08/20 11:03:40;;;;;;;;;;;25.10;50.20;;;;;;5047285;28;20268;-54
2021/08/20 11:06:51;;;;;;;3.67;2.00;;;25.30;54.20;;;;;;5046749;28;19928;-55
2021/08/20 11:09:39;;;;;;;5.03;2.13;;;25.30;52.00;;;;;;5046737;28;20032;-54
2021/08/20 11:12:39;;;;;;;2.80;1.80;;;25.30;50.40;;;;;;5031895;28;20048;-54
2021/08/20 11:15:25;;;;;;;4.45;2.15;;;25.40;51.50;;;;;;5046061;28;20356;-55
2021/08/20 11:18:09;;;;;;;3.78;2.40;;;25.50;52.70;;;;;;5046190;28;20044;-53
2021/08/20 11:20:53;;;;;;;6.15;2.22;;;25.60;50.70;;;;;;5046431;28;20120;-55
2021/08/20 11:23:38;;;;;;;4.70;2.40;;;25.80;53.20;;;;;;5045086;28;20068;-54
2021/08/20 11:26:30;;;;;;;4.60;1.88;;;25.80;51.20;;;;;;5046226;28;20076;-55
2021/08/20 11:29:16;;;;;;;5.72;2.05;;;25.90;50.00;;;;;;5046018;28;20029;-55
2021/08/20 11:32:06;;;;;;;4.47;2.08;;;25.90;49.90;;;;;;5045825;28;20339;-55
2021/08/20 11:34:54;;;;;;;4.57;1.90;;;25.90;50.40;;;;;;5046248;28;20371;-54
2021/08/20 11:37:52;;;;;;;4.03;2.22;;;26.00;48.40;;;;;;5046038;28;20105;-54
2021/08/20 11:40:46;;;;;;;3.10;1.85;;;26.10;49.80;;;;;;5044935;28;20072;-54
2021/08/20 11:43:32;;;;;;;3.83;2.00;;;26.20;50.00;;;;;;5046125;28;20109;-53
2021/08/20 11:46:16;;;;;;;4.53;2.20;;;26.20;50.50;;;;;;5046400;28;20048;-54
2021/08/20 11:49:00;;;;;;;4.25;2.10;;;26.20;48.70;;;;;;5044994;28;20035;-53
2021/08/20 11:51:45;;;;;;;3.15;2.00;;;26.20;48.50;;;;;;5046471;28;20044;-53
2021/08/20 11:54:39;;;;;;;3.38;1.95;;;26.30;49.30;;;;;;5046181;28;20075;-52
2021/08/20 11:57:36;;;;;;;4.43;2.15;;;26.30;49.60;;;;;;5045191;28;20071;-54
2021/08/20 12:00:21;;;;;;;3.70;2.38;;;26.20;46.20;;;;;;5045814;28;20029;-54
2021/08/20 12:03:08;;;;;;;3.78;2.40;;;26.20;48.80;;;;;;5044940;28;20028;-54
2021/08/20 12:06:08;;;;;;;3.85;2.35;;;26.20;50.50;;;;;;5044381;28;20217;-54
2021/08/20 12:08:57;;;;;;;3.03;2.17;;;26.20;46.80;;;;;;5046006;28;20088;-53
2021/08/20 12:11:45;;;;;;;4.90;2.30;;;26.10;49.50;;;;;;5044735;28;20028;-53
2021/08/20 12:14:29;;;;;;;4.93;2.30;;;26.00;49.90;;;;;;5044638;28;20056;-53
2021/08/20 12:17:19;;;;;;;3.50;2.15;;;26.10;49.90;;;;;;5044688;28;20085;-54
2021/08/20 12:20:23;;;;;;;3.42;2.10;;;26.00;49.60;;;;;;5044291;28;20028;-52
2021/08/20 12:23:07;;;;;;;3.55;2.20;;;25.90;50.00;;;;;;5044862;28;20032;-54
2021/08/20 12:25:51;;;;;;;4.25;2.17;;;25.90;49.50;;;;;;5045365;28;20151;-54
2021/08/20 12:28:39;;;;;;;3.05;1.95;;;25.90;49.80;;;;;;5045195;28;20037;-54
2021/08/20 12:31:26;;;;;;;3.70;2.10;;;26.00;48.80;;;;;;5044964;28;20048;-53
2021/08/20 12:34:10;;;;;;;7.82;2.10;;;26.10;50.30;;;;;;5044755;28;20375;-53
2021/08/20 12:36:59;;;;;;;3.55;1.75;;;26.20;48.70;;;;;;5043592;28;20056;-54
2021/08/20 12:39:44;;;;;;;3.83;2.10;;;26.20;48.90;;;;;;5044978;28;20035;-54
2021/08/20 12:42:28;;;;;;;3.63;2.08;;;26.20;47.80;;;;;;5044680;28;20049;-53
2021/08/20 12:45:14;;;;;;;3.30;2.17;;;26.20;46.50;;;;;;5044015;28;20245;-53
2021/08/20 12:48:05;;;;;;;4.63;2.15;;;26.30;49.10;;;;;;5044537;28;20351;-51
2021/08/20 12:50:49;;;;;;;2.38;1.75;;;26.40;48.00;;;;;;5044910;28;20033;-53
2021/08/20 12:53:35;;;;;;;4.47;2.00;;;26.50;48.70;;;;;;5029837;28;20136;-53
2021/08/20 12:56:29;;;;;;;2.95;2.00;;;26.60;48.80;;;;;;5044182;28;20321;-53
2021/08/20 12:59:17;;;;;;;4.70;2.30;;;26.70;49.00;;;;;;5044099;28;20075;-54
2021/08/20 13:02:01;;;;;;;2.55;1.85;;;26.80;48.20;;;;;;5043430;28;20028;-55
2021/08/20 13:04:45;;;;;;;3.67;1.90;;;26.80;47.70;;;;;;5044829;28;20067;-53
2021/08/20 13:07:29;;;;;;;5.15;2.85;;;26.80;48.60;;;;;;5044665;28;20091;-54
2021/08/20 13:10:14;;;;;;;3.95;2.25;;;26.90;48.80;;;;;;5043739;28;20072;-53
2021/08/20 13:12:58;;;;;;;3.72;2.10;;;26.80;46.50;;;;;;5044586;28;20032;-54
2021/08/20 13:15:43;;;;;;;3.28;2.00;;;26.80;48.10;;;;;;5044430;28;20348;-53
2021/08/20 13:18:27;;;;;;;5.90;2.17;;;26.70;47.30;;;;;;5044128;28;20041;-53
2021/08/20 13:21:19;;;;;;;5.88;2.05;;;26.60;47.80;;;;;;5044094;28;20070;-54
2021/08/20 13:24:03;;;;;;;3.65;2.03;;;26.60;47.70;;;;;;5043925;28;20032;-54
2021/08/20 13:26:47;;;;;;;3.53;2.00;;;26.70;48.10;;;;;;5043750;28;20072;-53
2021/08/20 13:29:32;;;;;;;4.78;2.13;;;26.60;45.30;;;;;;5043973;28;20212;-53
2021/08/20 13:32:16;;;;;;;2.92;2.03;;;26.70;44.40;;;;;;5043906;28;20024;-53
2021/08/20 13:35:00;;;;;;;5.15;2.10;;;26.70;46.20;;;;;;5044507;28;20084;-52
2021/08/20 13:37:46;;;;;;;3.78;2.22;;;26.70;44.40;;;;;;5044438;28;20374;-54
2021/08/20 13:40:34;;;;;;;3.78;2.28;;;26.80;47.40;;;;;;5043863;28;20031;-53
2021/08/20 13:43:19;;;;;;;4.88;2.08;;;26.70;44.70;;;;;;5045112;28;20067;-54
2021/08/20 13:46:03;;;;;;;6.68;2.30;;;26.70;43.90;;;;;;5044908;28;20083;-54
2021/08/20 13:48:51;;;;;;;3.15;2.00;;;26.70;46.50;;;;;;5044622;28;20060;-54
2021/08/20 13:51:35;;;;;;;3.58;1.98;;;26.80;46.90;;;;;;5043862;28;20072;-55
2021/08/20 13:54:20;;;;;;;3.60;2.10;;;26.50;43.50;;;;;;5044227;28;20089;-54
2021/08/20 13:57:04;;;;;;;4.07;2.00;;;26.30;44.00;;;;;;5043983;28;20396;-54
2021/08/20 13:59:48;;;;;;;5.15;1.77;;;26.40;47.10;;;;;;5043810;28;20375;-53
2021/08/20 14:02:32;;;;;;;9.93;3.45;;;26.40;48.80;;;;;;5043618;28;20253;-54
2021/08/20 14:05:17;;;;;;;3.88;2.00;;;26.40;48.00;;;;;;5043595;28;20383;-52
2021/08/20 14:08:03;;;;;;;4.78;2.10;;;26.30;46.10;;;;;;5043397;28;20052;-53
2021/08/20 14:10:48;;;;;;;3.80;2.10;;;26.30;45.50;;;;;;5044334;28;20197;-53
2021/08/20 14:13:32;;;;;;;3.35;2.10;;;26.30;46.50;;;;;;5043604;28;20447;-51
2021/08/20 14:16:16;;;;;;;4.10;2.08;;;26.20;43.70;;;;;;5043890;28;20364;-54
2021/08/20 14:19:00;;;;;;;3.05;2.17;;;26.20;45.00;;;;;;5028638;28;20032;-54
2021/08/20 14:21:44;;;;;;;3.80;2.30;;;26.30;47.20;;;;;;5046145;28;20051;-53